createdAt,value
2023-04-18T00:00:35.822Z,620.00
2023-04-18T00:01:35.849Z,619.00
2023-04-18T00:02:36.199Z,623.00
2023-04-18T00:03:36.119Z,618.00
2023-04-18T00:04:36.053Z,618.00
2023-04-18T00:05:35.982Z,614.00
2023-04-18T00:06:36.017Z,619.00
2023-04-18T00:07:36.076Z,623.00
2023-04-18T00:08:36.060Z,623.00
2023-04-18T00:09:36.101Z,617.00
2023-04-18T00:10:36.159Z,621.00
2023-04-18T00:11:36.148Z,628.00
2023-04-18T00:12:36.210Z,626.00
2023-04-18T00:13:36.184Z,624.00
2023-04-18T00:14:36.205Z,621.00
2023-04-18T00:15:36.260Z,620.00
2023-04-18T00:16:36.330Z,625.00
2023-04-18T00:17:36.343Z,626.00
2023-04-18T00:18:36.327Z,621.00
2023-04-18T00:19:36.340Z,625.00
2023-04-18T00:20:36.366Z,627.00
2023-04-18T00:21:36.398Z,618.00
2023-04-18T00:22:36.411Z,617.00
2023-04-18T00:23:36.431Z,618.00
2023-04-18T00:24:36.469Z,621.00
2023-04-18T00:25:36.518Z,627.00
2023-04-18T00:26:36.545Z,625.00
2023-04-18T00:27:36.559Z,621.00
2023-04-18T00:28:36.586Z,620.00
2023-04-18T00:29:36.611Z,614.00
2023-04-18T00:30:36.642Z,618.00
2023-04-18T00:31:36.653Z,619.00
2023-04-18T00:32:36.717Z,624.00
2023-04-18T00:33:36.747Z,616.00
2023-04-18T00:34:36.792Z,616.00
2023-04-18T00:35:36.824Z,620.00
2023-04-18T00:36:36.824Z,625.00
2023-04-18T00:37:36.846Z,617.00
2023-04-18T00:38:36.895Z,620.00
2023-04-18T00:39:36.927Z,619.00
2023-04-18T00:40:36.969Z,621.00
2023-04-18T00:41:36.966Z,620.00
2023-04-18T00:42:37.021Z,620.00
2023-04-18T00:43:37.064Z,618.00
2023-04-18T00:44:37.122Z,620.00
2023-04-18T00:45:37.120Z,620.00
2023-04-18T00:46:37.250Z,615.00
2023-04-18T00:47:37.216Z,618.00
2023-04-18T00:48:37.218Z,620.00
2023-04-18T00:49:37.265Z,617.00
2023-04-18T00:50:37.289Z,614.00
2023-04-18T00:51:37.306Z,610.00
2023-04-18T00:52:37.359Z,612.00
2023-04-18T00:53:37.408Z,612.00
2023-04-18T00:54:37.437Z,616.00
2023-04-18T00:55:37.472Z,618.00
2023-04-18T00:56:37.499Z,616.00
2023-04-18T00:57:37.555Z,614.00
2023-04-18T00:58:37.579Z,610.00
2023-04-18T00:59:37.613Z,608.00
2023-04-18T01:00:37.634Z,608.00
2023-04-18T01:01:37.714Z,614.00
2023-04-18T01:02:37.808Z,613.00
2023-04-18T01:03:37.980Z,613.00
2023-04-18T01:04:37.865Z,612.00
2023-04-18T01:05:37.844Z,605.00
2023-04-18T01:06:37.876Z,605.00
2023-04-18T01:07:37.903Z,609.00
2023-04-18T01:08:37.977Z,608.00
2023-04-18T01:09:38.018Z,602.00
2023-04-18T01:10:38.014Z,605.00
2023-04-18T01:11:38.064Z,604.00
2023-04-18T01:12:38.126Z,601.00
2023-04-18T01:13:38.159Z,602.00
2023-04-18T01:14:38.185Z,604.00
2023-04-18T01:15:38.269Z,607.00
2023-04-18T01:16:38.269Z,606.00
2023-04-18T01:17:38.295Z,599.00
2023-04-18T01:18:38.347Z,592.00
2023-04-18T01:19:38.361Z,596.00
2023-04-18T01:20:38.388Z,596.00
2023-04-18T01:21:38.414Z,602.00
2023-04-18T01:22:38.516Z,598.00
2023-04-18T01:23:38.545Z,597.00
2023-04-18T01:24:38.563Z,586.00
2023-04-18T01:25:38.581Z,595.00
2023-04-18T01:26:38.621Z,594.00
2023-04-18T01:27:38.688Z,592.00
2023-04-18T01:28:38.704Z,598.00
2023-04-18T01:29:39.053Z,592.00
2023-04-18T01:30:38.770Z,597.00
2023-04-18T01:31:39.007Z,596.00
2023-04-18T01:32:38.899Z,587.00
2023-04-18T01:33:38.880Z,585.00
2023-04-18T01:34:38.943Z,593.00
2023-04-18T01:35:38.947Z,592.00
2023-04-18T01:36:39.057Z,598.00
2023-04-18T01:37:39.005Z,594.00
2023-04-18T01:38:39.070Z,595.00
2023-04-18T01:39:39.101Z,582.00
2023-04-18T01:40:39.136Z,585.00
2023-04-18T01:41:39.187Z,583.00
2023-04-18T01:42:39.224Z,585.00
2023-04-18T01:43:39.228Z,579.00
2023-04-18T01:44:39.300Z,586.00
2023-04-18T01:45:39.302Z,577.00
2023-04-18T01:46:39.393Z,568.00
2023-04-18T01:47:39.439Z,567.00
2023-04-18T01:48:39.441Z,560.00
2023-04-18T01:49:39.483Z,561.00
2023-04-18T01:50:39.499Z,558.00
2023-04-18T01:51:39.548Z,571.00
2023-04-18T01:52:39.585Z,566.00
2023-04-18T01:53:39.635Z,555.00
2023-04-18T01:54:39.656Z,558.00
2023-04-18T01:55:39.699Z,556.00
2023-04-18T01:56:39.712Z,555.00
2023-04-18T01:57:39.744Z,562.00
2023-04-18T01:58:39.785Z,555.00
2023-04-18T01:59:39.818Z,555.00
2023-04-18T02:00:39.880Z,556.00
2023-04-18T02:01:39.899Z,560.00
2023-04-18T02:02:40.010Z,560.00
2023-04-18T02:03:40.179Z,567.00
2023-04-18T02:04:39.990Z,572.00
2023-04-18T02:05:40.036Z,582.00
2023-04-18T02:06:40.052Z,577.00
2023-04-18T02:07:40.067Z,591.00
2023-04-18T02:08:40.102Z,591.00
2023-04-18T02:09:40.151Z,594.00
2023-04-18T02:10:40.149Z,596.00
2023-04-18T02:11:40.175Z,597.00
2023-04-18T02:12:40.208Z,599.00
2023-04-18T02:13:40.235Z,601.00
2023-04-18T02:14:40.241Z,603.00
2023-04-18T02:15:40.247Z,609.00
2023-04-18T02:16:40.336Z,613.00
2023-04-18T02:17:40.334Z,609.00
2023-04-18T02:18:40.322Z,615.00
2023-04-18T02:19:40.378Z,620.00
2023-04-18T02:20:40.394Z,627.00
2023-04-18T02:21:40.435Z,630.00
2023-04-18T02:22:40.421Z,645.00
2023-04-18T02:23:40.426Z,649.00
2023-04-18T02:24:40.451Z,645.00
2023-04-18T02:25:40.498Z,649.00
2023-04-18T02:26:40.499Z,655.00
2023-04-18T02:27:40.526Z,647.00
2023-04-18T02:28:40.551Z,643.00
2023-04-18T02:29:40.551Z,642.00
2023-04-18T02:30:40.590Z,643.00
2023-04-18T02:31:40.568Z,645.00
2023-04-18T02:32:40.603Z,639.00
2023-04-18T02:33:40.586Z,644.00
2023-04-18T02:34:40.603Z,637.00
2023-04-18T02:35:40.622Z,640.00
2023-04-18T02:36:40.588Z,639.00
2023-04-18T02:37:40.602Z,635.00
2023-04-18T02:38:40.615Z,636.00
2023-04-18T02:39:40.600Z,638.00
2023-04-18T02:40:40.618Z,637.00
2023-04-18T02:41:40.634Z,632.00
2023-04-18T02:42:40.626Z,634.00
2023-04-18T02:43:40.621Z,636.00
2023-04-18T02:44:40.643Z,632.00
2023-04-18T02:45:40.669Z,631.00
2023-04-18T02:46:40.613Z,628.00
2023-04-18T02:47:53.704Z,626.00
2023-04-18T02:48:41.645Z,626.00
2023-04-18T02:49:40.598Z,627.00
2023-04-18T02:50:41.439Z,625.00
2023-04-18T02:51:40.596Z,626.00
2023-04-18T02:52:40.618Z,624.00
2023-04-18T02:53:40.583Z,621.00
2023-04-18T02:54:40.591Z,619.00
2023-04-18T02:55:40.577Z,614.00
2023-04-18T02:56:40.535Z,612.00
2023-04-18T02:57:40.533Z,609.00
2023-04-18T02:58:40.565Z,611.00
2023-04-18T02:59:40.554Z,607.00
2023-04-18T03:00:40.516Z,608.00
2023-04-18T03:01:40.574Z,607.00
2023-04-18T03:02:40.596Z,607.00
2023-04-18T03:03:40.548Z,605.00
2023-04-18T03:04:40.556Z,608.00
2023-04-18T03:05:40.512Z,606.00
2023-04-18T03:06:40.497Z,607.00
2023-04-18T03:07:40.485Z,603.00
2023-04-18T03:08:40.472Z,600.00
2023-04-18T03:09:40.466Z,599.00
2023-04-18T03:10:40.456Z,603.00
2023-04-18T03:11:40.468Z,602.00
2023-04-18T03:12:40.426Z,601.00
2023-04-18T03:13:40.419Z,602.00
2023-04-18T03:14:40.433Z,600.00
2023-04-18T03:15:40.473Z,599.00
2023-04-18T03:16:40.448Z,596.00
2023-04-18T03:17:40.428Z,602.00
2023-04-18T03:18:40.404Z,596.00
2023-04-18T03:19:40.425Z,597.00
2023-04-18T03:20:40.400Z,596.00
2023-04-18T03:21:40.388Z,596.00
2023-04-18T03:22:40.385Z,594.00
2023-04-18T03:23:40.367Z,594.00
2023-04-18T03:24:40.372Z,595.00
2023-04-18T03:25:40.365Z,590.00
2023-04-18T03:26:40.327Z,592.00
2023-04-18T03:27:40.361Z,592.00
2023-04-18T03:28:40.352Z,591.00
2023-04-18T03:29:40.345Z,587.00
2023-04-18T03:30:40.328Z,589.00
2023-04-18T03:31:40.388Z,591.00
2023-04-18T03:32:40.352Z,592.00
2023-04-18T03:33:40.334Z,585.00
2023-04-18T03:34:40.298Z,583.00
2023-04-18T03:35:40.275Z,586.00
2023-04-18T03:36:40.262Z,586.00
2023-04-18T03:37:40.306Z,587.00
2023-04-18T03:38:40.260Z,584.00
2023-04-18T03:39:40.299Z,584.00
2023-04-18T03:40:40.266Z,585.00
2023-04-18T03:41:40.257Z,587.00
2023-04-18T03:42:40.271Z,584.00
2023-04-18T03:43:40.217Z,585.00
2023-04-18T03:44:40.238Z,580.00
2023-04-18T03:45:40.238Z,584.00
2023-04-18T03:46:40.306Z,582.00
2023-04-18T03:47:40.301Z,586.00
2023-04-18T03:48:40.205Z,587.00
2023-04-18T03:49:40.189Z,584.00
2023-04-18T03:50:40.178Z,586.00
2023-04-18T03:51:40.192Z,581.00
2023-04-18T03:52:40.213Z,581.00
2023-04-18T03:53:40.183Z,585.00
2023-04-18T03:54:40.160Z,579.00
2023-04-18T03:55:40.156Z,587.00
2023-04-18T03:56:40.124Z,588.00
2023-04-18T03:57:41.290Z,588.00
2023-04-18T03:58:40.178Z,587.00
2023-04-18T03:59:40.196Z,587.00
2023-04-18T04:00:40.184Z,584.00
2023-04-18T04:01:40.197Z,587.00
2023-04-18T04:02:40.396Z,591.00
2023-04-18T04:03:40.356Z,587.00
2023-04-18T04:04:40.303Z,591.00
2023-04-18T04:05:40.265Z,581.00
2023-04-18T04:06:40.285Z,586.00
2023-04-18T04:07:40.361Z,585.00
2023-04-18T04:08:40.313Z,579.00
2023-04-18T04:09:40.340Z,586.00
2023-04-18T04:10:40.379Z,581.00
2023-04-18T04:11:40.391Z,579.00
2023-04-18T04:12:40.414Z,583.00
2023-04-18T04:13:40.423Z,588.00
2023-04-18T04:14:40.432Z,582.00
2023-04-18T04:15:40.499Z,586.00
2023-04-18T04:16:40.519Z,587.00
2023-04-18T04:17:40.566Z,589.00
2023-04-18T04:18:40.614Z,591.00
2023-04-18T04:19:40.640Z,590.00
2023-04-18T04:20:40.688Z,594.00
2023-04-18T04:21:40.692Z,595.00
2023-04-18T04:22:40.714Z,593.00
2023-04-18T04:23:40.804Z,593.00
2023-04-18T04:24:40.803Z,594.00
2023-04-18T04:25:40.869Z,594.00
2023-04-18T04:26:40.893Z,596.00
2023-04-18T04:27:40.911Z,597.00
2023-04-18T04:28:40.976Z,599.00
2023-04-18T04:29:40.995Z,599.00
2023-04-18T04:30:41.090Z,599.00
2023-04-18T04:31:41.166Z,603.00
2023-04-18T04:32:41.228Z,600.00
2023-04-18T04:33:41.246Z,602.00
2023-04-18T04:34:41.349Z,601.00
2023-04-18T04:35:41.310Z,600.00
2023-04-18T04:36:41.437Z,604.00
2023-04-18T04:37:41.452Z,606.00
2023-04-18T04:38:41.500Z,604.00
2023-04-18T04:39:41.544Z,605.00
2023-04-18T04:40:41.565Z,605.00
2023-04-18T04:41:41.623Z,603.00
2023-04-18T04:42:41.703Z,605.00
2023-04-18T04:43:41.747Z,606.00
2023-04-18T04:44:41.872Z,608.00
2023-04-18T04:45:41.836Z,609.00
2023-04-18T04:46:41.876Z,608.00
2023-04-18T04:47:41.965Z,607.00
2023-04-18T04:48:41.966Z,604.00
2023-04-18T04:49:42.072Z,603.00
2023-04-18T04:50:42.083Z,599.00
2023-04-18T04:51:42.077Z,601.00
2023-04-18T04:52:42.185Z,601.00
2023-04-18T04:53:42.186Z,602.00
2023-04-18T04:54:42.225Z,603.00
2023-04-18T04:55:42.278Z,601.00
2023-04-18T04:56:42.307Z,602.00
2023-04-18T04:57:42.380Z,604.00
2023-04-18T04:58:42.419Z,601.00
2023-04-18T04:59:42.430Z,602.00
2023-04-18T05:00:49.562Z,604.00
2023-04-18T05:01:42.516Z,605.00
2023-04-18T05:02:42.573Z,606.00
2023-04-18T05:03:42.592Z,607.00
2023-04-18T05:04:42.587Z,608.00
2023-04-18T05:05:42.423Z,613.00
2023-04-18T05:06:42.419Z,608.00
2023-04-18T05:07:42.380Z,608.00
2023-04-18T05:08:42.383Z,608.00
2023-04-18T05:09:42.361Z,610.00
2023-04-18T05:10:42.407Z,612.00
2023-04-18T05:11:42.362Z,616.00
2023-04-18T05:12:42.344Z,613.00
2023-04-18T05:13:42.364Z,614.00
2023-04-18T05:14:42.365Z,611.00
2023-04-18T05:15:42.336Z,616.00
2023-04-18T05:16:42.330Z,613.00
2023-04-18T05:17:42.399Z,613.00
2023-04-18T05:18:42.371Z,613.00
2023-04-18T05:19:42.287Z,612.00
2023-04-18T05:20:42.319Z,619.00
2023-04-18T05:21:42.303Z,616.00
2023-04-18T05:22:42.283Z,616.00
2023-04-18T05:23:42.290Z,616.00
2023-04-18T05:24:42.302Z,618.00
2023-04-18T05:25:42.285Z,619.00
2023-04-18T05:26:42.233Z,617.00
2023-04-18T05:27:42.249Z,619.00
2023-04-18T05:28:42.248Z,620.00
2023-04-18T05:29:42.308Z,620.00
2023-04-18T05:30:42.292Z,621.00
2023-04-18T05:31:42.242Z,623.00
2023-04-18T05:32:42.245Z,625.00
2023-04-18T05:33:42.533Z,623.00
2023-04-18T05:34:42.190Z,621.00
2023-04-18T05:35:42.186Z,633.00
2023-04-18T05:36:42.198Z,635.00
2023-04-18T05:37:42.207Z,664.00
2023-04-18T05:38:42.537Z,724.00
2023-04-18T05:39:42.145Z,831.00
2023-04-18T05:40:42.170Z,829.00
2023-04-18T05:41:42.223Z,1078.00
2023-04-18T05:42:42.168Z,1060.00
2023-04-18T05:43:44.422Z,977.00
2023-04-18T05:44:42.142Z,957.00
2023-04-18T05:45:49.153Z,984.00
2023-04-18T05:46:42.190Z,981.00
2023-04-18T05:47:42.127Z,997.00
2023-04-18T05:48:42.557Z,1001.00
2023-04-18T05:49:42.087Z,948.00
2023-04-18T05:50:42.096Z,1024.00
2023-04-18T05:51:42.105Z,1021.00
2023-04-18T05:52:42.124Z,1153.00
2023-04-18T05:53:42.550Z,1227.00
2023-04-18T05:54:42.100Z,1341.00
2023-04-18T05:55:42.058Z,1337.00
2023-04-18T05:56:42.051Z,1392.00
2023-04-18T05:57:42.022Z,1464.00
2023-04-18T05:58:42.081Z,1507.00
2023-04-18T05:59:42.058Z,1600.00
2023-04-18T06:00:42.082Z,1684.00
2023-04-18T06:01:42.041Z,1765.00
2023-04-18T06:02:42.133Z,1796.00
2023-04-18T06:03:42.141Z,1853.00
2023-04-18T06:04:42.188Z,1879.00
2023-04-18T06:05:41.995Z,1952.00
2023-04-18T06:06:41.992Z,1942.00
2023-04-18T06:07:42.077Z,1970.00
2023-04-18T06:08:41.988Z,2068.00
2023-04-18T06:09:41.952Z,2121.00
2023-04-18T06:10:41.984Z,2141.00
2023-04-18T06:11:41.967Z,2141.00
2023-04-18T06:12:41.929Z,2109.00
2023-04-18T06:13:41.970Z,2190.00
2023-04-18T06:14:41.974Z,2271.00
2023-04-18T06:15:41.933Z,2285.00
2023-04-18T06:16:41.977Z,2320.00
2023-04-18T06:17:41.935Z,2324.00
2023-04-18T06:18:42.081Z,2342.00
2023-04-18T06:19:41.919Z,2406.00
2023-04-18T06:20:41.970Z,2433.00
2023-04-18T06:21:41.997Z,2460.00
2023-04-18T06:22:41.946Z,2444.00
2023-04-18T06:23:41.986Z,2492.00
2023-04-18T06:24:41.999Z,2531.00
2023-04-18T06:25:42.132Z,2595.00
2023-04-18T06:26:42.042Z,2573.00
2023-04-18T06:27:42.064Z,2534.00
2023-04-18T06:28:42.099Z,2568.00
2023-04-18T06:29:42.138Z,2641.00
2023-04-18T06:30:42.196Z,2613.00
2023-04-18T06:31:42.402Z,2679.00
2023-04-18T06:32:42.260Z,2635.00
2023-04-18T06:33:42.288Z,2684.00
2023-04-18T06:34:42.206Z,2682.00
2023-04-18T06:35:42.217Z,2755.00
2023-04-18T06:36:42.207Z,2751.00
2023-04-18T06:37:42.233Z,2698.00
2023-04-18T06:38:42.560Z,2584.00
2023-04-18T06:39:42.314Z,2467.00
2023-04-18T06:40:42.318Z,2466.00
2023-04-18T06:41:42.325Z,2333.00
2023-04-18T06:42:42.398Z,2207.00
2023-04-18T06:43:52.079Z,2054.00
2023-04-18T06:44:43.461Z,2055.00
2023-04-18T06:45:42.469Z,2008.00
2023-04-18T06:46:42.416Z,1937.00
2023-04-18T06:47:42.414Z,1827.00
2023-04-18T06:48:42.411Z,1809.00
2023-04-18T06:49:42.369Z,1789.00
2023-04-18T06:50:42.393Z,1683.00
2023-04-18T06:51:42.396Z,1604.00
2023-04-18T06:52:42.400Z,1519.00
2023-04-18T06:53:42.371Z,1507.00
2023-04-18T06:54:42.470Z,1468.00
2023-04-18T06:55:42.541Z,1446.00
2023-04-18T06:56:42.504Z,1372.00
2023-04-18T06:57:42.511Z,1346.00
2023-04-18T06:58:42.578Z,1382.00
2023-04-18T06:59:42.588Z,1316.00
2023-04-18T07:00:42.629Z,1297.00
2023-04-18T07:01:42.580Z,1351.00
2023-04-18T07:02:42.659Z,1374.00
2023-04-18T07:03:42.613Z,1394.00
2023-04-18T07:04:42.676Z,1362.00
2023-04-18T07:05:42.544Z,1361.00
2023-04-18T07:06:42.579Z,1372.00
2023-04-18T07:07:42.545Z,1432.00
2023-04-18T07:08:42.601Z,1364.00
2023-04-18T07:09:42.601Z,1375.00
2023-04-18T07:10:42.574Z,1367.00
2023-04-18T07:11:42.670Z,1371.00
2023-04-18T07:12:42.648Z,1348.00
2023-04-18T07:13:42.723Z,1273.00
2023-04-18T07:14:43.065Z,1275.00
2023-04-18T07:15:42.770Z,1328.00
2023-04-18T07:16:42.841Z,1312.00
2023-04-18T07:17:42.934Z,1338.00
2023-04-18T07:18:42.930Z,1349.00
2023-04-18T07:19:42.995Z,1384.00
2023-04-18T07:20:43.081Z,1413.00
2023-04-18T07:21:43.151Z,1432.00
2023-04-18T07:22:43.215Z,1330.00
2023-04-18T07:23:43.267Z,1314.00
2023-04-18T07:24:43.338Z,1287.00
2023-04-18T07:25:43.390Z,1304.00
2023-04-18T07:26:43.481Z,1370.00
2023-04-18T07:27:43.584Z,1372.00
2023-04-18T07:28:43.618Z,1266.00
2023-04-18T07:29:44.117Z,1353.00
2023-04-18T07:30:43.759Z,1243.00
2023-04-18T07:31:43.783Z,1210.00
2023-04-18T07:32:43.863Z,1304.00
2023-04-18T07:33:43.916Z,1363.00
2023-04-18T07:34:43.929Z,1489.00
2023-04-18T07:35:43.941Z,1596.00
2023-04-18T07:36:43.921Z,1645.00
2023-04-18T07:37:44.019Z,1630.00
2023-04-18T07:38:44.040Z,1643.00
2023-04-18T07:39:44.096Z,1643.00
2023-04-18T07:40:44.084Z,1631.00
2023-04-18T07:41:44.096Z,1717.00
2023-04-18T07:42:44.076Z,1741.00
2023-04-18T07:43:44.142Z,1789.00
2023-04-18T07:44:44.074Z,1870.00
2023-04-18T07:45:44.091Z,1836.00
2023-04-18T07:46:44.135Z,1837.00
2023-04-18T07:47:44.169Z,1801.00
2023-04-18T07:48:44.131Z,1823.00
2023-04-18T07:49:44.096Z,1836.00
2023-04-18T07:50:44.103Z,1881.00
2023-04-18T07:51:44.114Z,1943.00
2023-04-18T07:52:44.175Z,1939.00
2023-04-18T07:53:44.234Z,1944.00
2023-04-18T07:54:44.300Z,1963.00
2023-04-18T07:55:44.365Z,2031.00
2023-04-18T07:56:44.386Z,2032.00
2023-04-18T07:57:45.859Z,2086.00
2023-04-18T07:58:44.498Z,2130.00
2023-04-18T07:59:44.647Z,2100.00
2023-04-18T08:00:44.609Z,2051.00
2023-04-18T08:01:44.662Z,1979.00
2023-04-18T08:02:44.713Z,2011.00
2023-04-18T08:03:44.816Z,2052.00
2023-04-18T08:04:44.893Z,2043.00
2023-04-18T08:05:44.780Z,2057.00
2023-04-18T08:06:44.776Z,2085.00
2023-04-18T08:07:44.867Z,2124.00
2023-04-18T08:08:44.912Z,2158.00
2023-04-18T08:09:44.894Z,2184.00
2023-04-18T08:10:44.869Z,2257.00
2023-04-18T08:11:44.933Z,2310.00
2023-04-18T08:12:44.912Z,2352.00
2023-04-18T08:13:44.955Z,2366.00
2023-04-18T08:14:44.987Z,2397.00
2023-04-18T08:15:45.119Z,2409.00
2023-04-18T08:16:44.955Z,2483.00
2023-04-18T08:17:45.064Z,2498.00
2023-04-18T08:18:44.981Z,2634.00
2023-04-18T08:19:44.950Z,2574.00
2023-04-18T08:20:45.033Z,2572.00
2023-04-18T08:21:44.997Z,2586.00
2023-04-18T08:23:01.973Z,2632.00
2023-04-18T08:23:45.974Z,2611.00
2023-04-18T08:24:57.456Z,2571.00
2023-04-18T08:25:45.980Z,2564.00
2023-04-18T08:26:44.972Z,2509.00
2023-04-18T08:27:44.950Z,2483.00
2023-04-18T08:28:46.585Z,2462.00
2023-04-18T08:29:45.090Z,2422.00
2023-04-18T08:30:44.921Z,2344.00
2023-04-18T08:31:45.038Z,2057.00
2023-04-18T08:32:44.956Z,1997.00
2023-04-18T08:33:44.952Z,1880.00
2023-04-18T08:34:45.129Z,1766.00
2023-04-18T08:35:44.893Z,1382.00
2023-04-18T08:36:45.658Z,1120.00
2023-04-18T08:37:44.881Z,853.00
2023-04-18T08:38:44.862Z,657.00
2023-04-18T08:39:44.866Z,614.00
2023-04-18T08:40:44.854Z,593.00
2023-04-18T08:41:44.829Z,557.00
2023-04-18T08:42:44.834Z,514.00
2023-04-18T08:43:44.818Z,502.00
2023-04-18T08:44:44.839Z,498.00
2023-04-18T08:45:44.988Z,498.00
2023-04-18T08:46:45.008Z,500.00
2023-04-18T08:47:45.108Z,500.00
2023-04-18T08:48:45.076Z,500.00
2023-04-18T08:49:45.148Z,509.00
2023-04-18T08:50:45.098Z,527.00
2023-04-18T08:51:45.068Z,630.00
2023-04-18T08:52:45.042Z,913.00
2023-04-18T08:53:45.097Z,637.00
2023-04-18T08:54:45.084Z,636.00
2023-04-18T08:55:45.108Z,953.00
2023-04-18T08:56:45.119Z,664.00
2023-04-18T08:57:45.142Z,656.00
2023-04-18T08:58:45.225Z,667.00
2023-04-18T08:59:47.114Z,846.00
2023-04-18T09:00:45.129Z,872.00
2023-04-18T09:01:45.197Z,928.00
2023-04-18T09:02:45.349Z,875.00
2023-04-18T09:03:45.313Z,878.00
2023-04-18T09:04:45.145Z,851.00
2023-04-18T09:05:45.116Z,747.00
2023-04-18T09:06:45.101Z,643.00
2023-04-18T09:07:45.114Z,631.00
2023-04-18T09:08:45.102Z,662.00
2023-04-18T09:09:45.128Z,730.00
2023-04-18T09:10:46.755Z,642.00
2023-04-18T09:11:45.044Z,639.00
2023-04-18T09:12:45.048Z,610.00
2023-04-18T09:13:45.084Z,629.00
2023-04-18T09:14:45.076Z,692.00
2023-04-18T09:15:45.068Z,758.00
2023-04-18T09:16:45.078Z,666.00
2023-04-18T09:17:45.090Z,689.00
2023-04-18T09:18:45.018Z,583.00
2023-04-18T09:19:45.392Z,581.00
2023-04-18T09:20:44.998Z,584.00
2023-04-18T09:21:45.009Z,587.00
2023-04-18T09:22:45.032Z,552.00
2023-04-18T09:23:45.011Z,520.00
2023-04-18T09:24:45.191Z,529.00
2023-04-18T09:25:45.410Z,555.00
2023-04-18T09:26:44.987Z,513.00
2023-04-18T09:27:44.963Z,500.00
2023-04-18T09:28:45.020Z,534.00
2023-04-18T09:29:44.993Z,500.00
2023-04-18T09:30:45.049Z,523.00
2023-04-18T09:31:45.016Z,539.00
2023-04-18T09:32:45.079Z,504.00
2023-04-18T09:33:45.017Z,504.00
2023-04-18T09:34:45.071Z,505.00
2023-04-18T09:35:45.026Z,497.00
2023-04-18T09:36:45.112Z,500.00
2023-04-18T09:37:45.052Z,513.00
2023-04-18T09:38:45.012Z,503.00
2023-04-18T09:39:45.108Z,483.00
2023-04-18T09:40:45.140Z,512.00
2023-04-18T09:41:46.907Z,540.00
2023-04-18T09:42:45.292Z,478.00
2023-04-18T09:43:45.050Z,597.00
2023-04-18T09:44:45.101Z,870.00
2023-04-18T09:45:45.171Z,1310.00
2023-04-18T09:46:47.154Z,1584.00
2023-04-18T09:47:45.320Z,1763.00
2023-04-18T09:48:45.300Z,1911.00
2023-04-18T09:49:45.290Z,1920.00
2023-04-18T09:50:45.680Z,1942.00
2023-04-18T09:51:45.300Z,1855.00
2023-04-18T09:52:45.378Z,1763.00
2023-04-18T09:53:45.364Z,1745.00
2023-04-18T09:54:47.115Z,1709.00
2023-04-18T09:55:45.352Z,1883.00
2023-04-18T09:56:45.359Z,1684.00
2023-04-18T09:57:45.328Z,1482.00
2023-04-18T09:58:45.323Z,1413.00
2023-04-18T09:59:45.341Z,1376.00
2023-04-18T10:00:46.925Z,1350.00
2023-04-18T10:01:45.350Z,1325.00
2023-04-18T10:02:45.377Z,1214.00
2023-04-18T10:03:45.361Z,1206.00
2023-04-18T10:04:45.357Z,1133.00
2023-04-18T10:05:45.338Z,1125.00
2023-04-18T10:06:45.272Z,1169.00
2023-04-18T10:07:45.244Z,1052.00
2023-04-18T10:08:45.296Z,880.00
2023-04-18T10:09:45.235Z,907.00
2023-04-18T10:10:45.286Z,1017.00
2023-04-18T10:11:45.245Z,1150.00
2023-04-18T10:12:45.209Z,1210.00
2023-04-18T10:13:45.231Z,1100.00
2023-04-18T10:14:45.296Z,1112.00
2023-04-18T10:15:45.733Z,1210.00
2023-04-18T10:16:45.441Z,1214.00
2023-04-18T10:17:56.201Z,1219.00
2023-04-18T10:18:46.506Z,1223.00
2023-04-18T10:19:45.495Z,1246.00
2023-04-18T10:20:45.650Z,1236.00
2023-04-18T10:21:45.446Z,1185.00
2023-04-18T10:22:45.452Z,1221.00
2023-04-18T10:23:45.601Z,1363.00
2023-04-18T10:24:45.424Z,1458.00
2023-04-18T10:25:45.459Z,1496.00
2023-04-18T10:26:45.431Z,1690.00
2023-04-18T10:27:45.462Z,1632.00
2023-04-18T10:28:46.015Z,1702.00
2023-04-18T10:29:45.608Z,1757.00
2023-04-18T10:30:46.175Z,1738.00
2023-04-18T10:31:45.764Z,1698.00
2023-04-18T10:32:45.788Z,1555.00
2023-04-18T10:33:52.808Z,1521.00
2023-04-18T10:34:46.813Z,1521.00
2023-04-18T10:35:46.166Z,1535.00
2023-04-18T10:36:45.815Z,1556.00
2023-04-18T10:37:45.774Z,1686.00
2023-04-18T10:38:45.827Z,2070.00
2023-04-18T10:39:45.867Z,2266.00
2023-04-18T10:40:46.200Z,2334.00
2023-04-18T10:41:45.859Z,2291.00
2023-04-18T10:42:45.753Z,1854.00
2023-04-18T10:43:45.749Z,1467.00
2023-04-18T10:44:45.782Z,1208.00
2023-04-18T10:45:45.923Z,1125.00
2023-04-18T10:46:45.936Z,1092.00
2023-04-18T10:47:46.060Z,1005.00
2023-04-18T10:48:46.089Z,975.00
2023-04-18T10:49:46.027Z,1077.00
2023-04-18T10:50:46.067Z,803.00
2023-04-18T10:51:46.195Z,617.00
2023-04-18T10:52:46.081Z,565.00
2023-04-18T10:53:46.093Z,533.00
2023-04-18T10:54:46.106Z,509.00
2023-04-18T10:55:46.112Z,598.00
2023-04-18T10:56:46.179Z,669.00
2023-04-18T10:57:46.112Z,739.00
2023-04-18T10:58:46.114Z,652.00
2023-04-18T10:59:46.143Z,593.00
2023-04-18T11:00:46.162Z,548.00
2023-04-18T11:01:46.139Z,544.00
2023-04-18T11:02:46.242Z,499.00
2023-04-18T11:03:46.186Z,477.00
2023-04-18T11:04:46.109Z,494.00
2023-04-18T11:05:46.094Z,460.00
2023-04-18T11:06:46.172Z,423.00
2023-04-18T11:07:46.142Z,456.00
2023-04-18T11:08:46.678Z,499.00
2023-04-18T11:09:46.193Z,528.00
2023-04-18T11:10:46.167Z,555.00
2023-04-18T11:11:46.250Z,517.00
2023-04-18T11:12:46.214Z,504.00
2023-04-18T11:13:46.253Z,500.00
2023-04-18T11:14:46.296Z,503.00
2023-04-18T11:15:46.287Z,467.00
2023-04-18T11:16:46.318Z,573.00
2023-04-18T11:17:46.391Z,502.00
2023-04-18T11:18:46.357Z,581.00
2023-04-18T11:19:46.372Z,671.00
2023-04-18T11:20:46.378Z,941.00
2023-04-18T11:21:46.689Z,1165.00
2023-04-18T11:22:46.383Z,1430.00
2023-04-18T11:23:46.396Z,1599.00
2023-04-18T11:24:46.356Z,1904.00
2023-04-18T11:25:46.401Z,2113.00
2023-04-18T11:26:46.450Z,2268.00
2023-04-18T11:27:46.519Z,2489.00
2023-04-18T11:28:46.572Z,2683.00
2023-04-18T11:29:47.679Z,2817.00
2023-04-18T11:30:46.666Z,2950.00
2023-04-18T11:31:47.280Z,3610.00
2023-04-18T11:32:46.795Z,3946.00
2023-04-18T11:33:46.770Z,3972.00
2023-04-18T11:34:47.178Z,3927.00
2023-04-18T11:35:46.872Z,3870.00
2023-04-18T11:36:47.169Z,3863.00
2023-04-18T11:37:46.891Z,3862.00
2023-04-18T11:38:46.941Z,3873.00
2023-04-18T11:39:47.231Z,3770.00
2023-04-18T11:40:47.021Z,3823.00
2023-04-18T11:41:47.188Z,3840.00
2023-04-18T11:42:47.125Z,3624.00
2023-04-18T11:43:47.186Z,3615.00
2023-04-18T11:44:47.254Z,3597.00
2023-04-18T11:45:47.294Z,3703.00
2023-04-18T11:46:47.672Z,3780.00
2023-04-18T11:47:47.412Z,3829.00
2023-04-18T11:48:47.453Z,3771.00
2023-04-18T11:49:47.529Z,3782.00
2023-04-18T11:50:47.605Z,3772.00
2023-04-18T11:51:47.594Z,3793.00
2023-04-18T11:52:47.729Z,3772.00
2023-04-18T11:53:47.721Z,3704.00
2023-04-18T11:54:47.832Z,3646.00
2023-04-18T11:55:47.860Z,3591.00
2023-04-18T11:56:47.946Z,3457.00
2023-04-18T11:57:48.006Z,3524.00
2023-04-18T11:58:48.018Z,3484.00
2023-04-18T11:59:48.145Z,3519.00
2023-04-18T12:00:48.132Z,3506.00
2023-04-18T12:01:48.351Z,3498.00
2023-04-18T12:02:48.338Z,3416.00
2023-04-18T12:03:48.549Z,3509.00
2023-04-18T12:04:48.562Z,3476.00
2023-04-18T12:05:48.732Z,3469.00
2023-04-18T12:06:48.540Z,3451.00
2023-04-18T12:07:48.563Z,3354.00
2023-04-18T12:08:48.655Z,3269.00
2023-04-18T12:09:48.670Z,3121.00
2023-04-18T12:10:48.764Z,2934.00
2023-04-18T12:11:48.811Z,2967.00
2023-04-18T12:12:48.817Z,3017.00
2023-04-18T12:13:48.894Z,3033.00
2023-04-18T12:14:48.984Z,3051.00
2023-04-18T12:15:49.103Z,2982.00
2023-04-18T12:16:49.081Z,3062.00
2023-04-18T12:17:49.158Z,2983.00
2023-04-18T12:18:49.174Z,2951.00
2023-04-18T12:19:49.876Z,2876.00